sensor_id;sensor_type;location;lat;lon;timestamp;temperature;humidity
8103;DHT22;4094;49.948;11.574;2022-08-07T00:02:13;20.50;40.30
8103;DHT22;4094;49.948;11.574;2022-08-07T00:05:05;20.40;40.50
8103;DHT22;4094;49.948;11.574;2022-08-07T00:07:35;20.40;40.60
8103;DHT22;4094;49.948;11.574;2022-08-07T00:10:09;20.40;40.80
8103;DHT22;4094;49.948;11.574;2022-08-07T00:12:58;20.30;40.80
8103;DHT22;4094;49.948;11.574;2022-08-07T00:15:44;20.30;41.00
8103;DHT22;4094;49.948;11.574;2022-08-07T00:18:19;20.20;41.00
8103;DHT22;4094;49.948;11.574;2022-08-07T00:20:54;20.20;41.10
8103;DHT22;4094;49.948;11.574;2022-08-07T00:23:30;20.20;41.10
8103;DHT22;4094;49.948;11.574;2022-08-07T00:26:01;20.10;41.10
8103;DHT22;4094;49.948;11.574;2022-08-07T00:28:45;20.10;41.10
8103;DHT22;4094;49.948;11.574;2022-08-07T00:31:23;20.00;41.10
8103;DHT22;4094;49.948;11.574;2022-08-07T00:34:08;20.00;41.50
8103;DHT22;4094;49.948;11.574;2022-08-07T00:36:39;19.90;41.20
8103;DHT22;4094;49.948;11.574;2022-08-07T00:39:11;19.90;41.40
8103;DHT22;4094;49.948;11.574;2022-08-07T00:41:51;19.80;41.40
8103;DHT22;4094;49.948;11.574;2022-08-07T00:44:32;19.80;41.50
8103;DHT22;4094;49.948;11.574;2022-08-07T00:47:02;19.80;41.60
8103;DHT22;4094;49.948;11.574;2022-08-07T00:49:52;19.80;41.80
8103;DHT22;4094;49.948;11.574;2022-08-07T00:52:42;19.70;41.90
8103;DHT22;4094;49.948;11.574;2022-08-07T00:55:14;19.70;41.90
8103;DHT22;4094;49.948;11.574;2022-08-07T00:58:04;19.70;41.90
8103;DHT22;4094;49.948;11.574;2022-08-07T01:00:33;19.70;41.90
8103;DHT22;4094;49.948;11.574;2022-08-07T01:03:02;19.70;41.90
8103;DHT22;4094;49.948;11.574;2022-08-07T01:05:32;19.70;41.90
8103;DHT22;4094;49.948;11.574;2022-08-07T01:08:06;19.70;42.00
8103;DHT22;4094;49.948;11.574;2022-08-07T01:10:35;19.70;42.10
8103;DHT22;4094;49.948;11.574;2022-08-07T01:13:14;19.60;42.10
8103;DHT22;4094;49.948;11.574;2022-08-07T01:15:45;19.60;42.50
8103;DHT22;4094;49.948;11.574;2022-08-07T01:18:33;19.60;42.60
8103;DHT22;4094;49.948;11.574;2022-08-07T01:21:09;19.60;42.60
8103;DHT22;4094;49.948;11.574;2022-08-07T01:23:50;19.50;42.70
8103;DHT22;4094;49.948;11.574;2022-08-07T01:26:21;19.50;42.60
8103;DHT22;4094;49.948;11.574;2022-08-07T01:28:54;19.40;42.90
8103;DHT22;4094;49.948;11.574;2022-08-07T01:31:26;19.40;43.00
8103;DHT22;4094;49.948;11.574;2022-08-07T01:34:14;19.40;42.90
8103;DHT22;4094;49.948;11.574;2022-08-07T01:36:48;19.40;42.80
8103;DHT22;4094;49.948;11.574;2022-08-07T01:39:25;19.40;42.90
8103;DHT22;4094;49.948;11.574;2022-08-07T01:42:13;19.40;43.20
8103;DHT22;4094;49.948;11.574;2022-08-07T01:45:05;19.40;43.50
8103;DHT22;4094;49.948;11.574;2022-08-07T01:47:43;19.40;43.60
8103;DHT22;4094;49.948;11.574;2022-08-07T01:50:36;19.40;43.80
8103;DHT22;4094;49.948;11.574;2022-08-07T01:53:13;19.40;44.10
8103;DHT22;4094;49.948;11.574;2022-08-07T01:56:08;19.40;44.30
8103;DHT22;4094;49.948;11.574;2022-08-07T01:58:43;19.40;44.20
8103;DHT22;4094;49.948;11.574;2022-08-07T02:01:19;19.40;44.30
8103;DHT22;4094;49.948;11.574;2022-08-07T02:04:14;19.40;44.50
8103;DHT22;4094;49.948;11.574;2022-08-07T02:06:51;19.30;44.60
8103;DHT22;4094;49.948;11.574;2022-08-07T02:09:25;19.30;44.30
8103;DHT22;4094;49.948;11.574;2022-08-07T02:12:19;19.30;44.40
8103;DHT22;4094;49.948;11.574;2022-08-07T02:14:59;19.30;44.50
8103;DHT22;4094;49.948;11.574;2022-08-07T02:17:41;19.20;44.40
8103;DHT22;4094;49.948;11.574;2022-08-07T02:20:17;19.20;44.60
8103;DHT22;4094;49.948;11.574;2022-08-07T02:22:55;19.20;44.90
8103;DHT22;4094;49.948;11.574;2022-08-07T02:25:32;19.20;44.80
8103;DHT22;4094;49.948;11.574;2022-08-07T02:28:24;19.10;44.90
8103;DHT22;4094;49.948;11.574;2022-08-07T02:31:01;19.10;44.80
8103;DHT22;4094;49.948;11.574;2022-08-07T02:33:52;19.10;44.80
8103;DHT22;4094;49.948;11.574;2022-08-07T02:36:33;19.00;44.80
8103;DHT22;4094;49.948;11.574;2022-08-07T02:39:10;19.00;45.50
8103;DHT22;4094;49.948;11.574;2022-08-07T02:42:03;19.00;45.10
8103;DHT22;4094;49.948;11.574;2022-08-07T02:44:43;18.90;45.10
8103;DHT22;4094;49.948;11.574;2022-08-07T02:47:17;18.90;45.10
8103;DHT22;4094;49.948;11.574;2022-08-07T02:50:13;18.90;45.20
8103;DHT22;4094;49.948;11.574;2022-08-07T02:52:47;18.80;45.10
8103;DHT22;4094;49.948;11.574;2022-08-07T02:55:21;18.80;45.20
8103;DHT22;4094;49.948;11.574;2022-08-07T02:58:14;18.70;45.60
8103;DHT22;4094;49.948;11.574;2022-08-07T03:00:51;18.70;45.90
8103;DHT22;4094;49.948;11.574;2022-08-07T03:03:25;18.60;45.70
8103;DHT22;4094;49.948;11.574;2022-08-07T03:06:18;18.60;45.80
8103;DHT22;4094;49.948;11.574;2022-08-07T03:09:00;18.60;45.90
8103;DHT22;4094;49.948;11.574;2022-08-07T03:11:30;18.50;45.90
8103;DHT22;4094;49.948;11.574;2022-08-07T03:14:08;18.50;45.80
8103;DHT22;4094;49.948;11.574;2022-08-07T03:16:38;18.50;45.80
8103;DHT22;4094;49.948;11.574;2022-08-07T03:19:09;18.50;45.90
8103;DHT22;4094;49.948;11.574;2022-08-07T03:21:40;18.50;45.80
8103;DHT22;4094;49.948;11.574;2022-08-07T03:24:17;18.40;45.80
8103;DHT22;4094;49.948;11.574;2022-08-07T03:27:00;18.40;46.00
8103;DHT22;4094;49.948;11.574;2022-08-07T03:29:44;18.40;46.10
8103;DHT22;4094;49.948;11.574;2022-08-07T03:32:23;18.30;45.90
8103;DHT22;4094;49.948;11.574;2022-08-07T03:34:58;18.30;46.00
8103;DHT22;4094;49.948;11.574;2022-08-07T03:37:52;18.30;46.10
8103;DHT22;4094;49.948;11.574;2022-08-07T03:40:29;18.30;46.40
8103;DHT22;4094;49.948;11.574;2022-08-07T03:43:08;18.30;46.50
8103;DHT22;4094;49.948;11.574;2022-08-07T03:45:50;18.20;46.40
8103;DHT22;4094;49.948;11.574;2022-08-07T03:48:24;18.20;46.60
8103;DHT22;4094;49.948;11.574;2022-08-07T03:50:57;18.10;46.70
8103;DHT22;4094;49.948;11.574;2022-08-07T03:53:36;18.10;46.70
8103;DHT22;4094;49.948;11.574;2022-08-07T03:56:26;18.10;46.90
8103;DHT22;4094;49.948;11.574;2022-08-07T03:59:04;18.10;46.70
8103;DHT22;4094;49.948;11.574;2022-08-07T04:01:44;18.10;46.80
8103;DHT22;4094;49.948;11.574;2022-08-07T04:04:17;18.00;46.70
8103;DHT22;4094;49.948;11.574;2022-08-07T04:06:52;18.00;46.80
8103;DHT22;4094;49.948;11.574;2022-08-07T04:09:23;18.00;47.00
8103;DHT22;4094;49.948;11.574;2022-08-07T04:12:12;17.90;46.80
8103;DHT22;4094;49.948;11.574;2022-08-07T04:14:56;17.90;46.80
8103;DHT22;4094;49.948;11.574;2022-08-07T04:17:30;17.90;47.00
8103;DHT22;4094;49.948;11.574;2022-08-07T04:20:21;17.90;47.20
8103;DHT22;4094;49.948;11.574;2022-08-07T04:22:52;17.80;47.20
8103;DHT22;4094;49.948;11.574;2022-08-07T04:25:37;17.80;47.30
8103;DHT22;4094;49.948;11.574;2022-08-07T04:28:09;17.80;47.40
8103;DHT22;4094;49.948;11.574;2022-08-07T04:30:41;17.80;47.60
8103;DHT22;4094;49.948;11.574;2022-08-07T04:33:31;17.80;47.60
8103;DHT22;4094;49.948;11.574;2022-08-07T04:36:03;17.80;47.60
8103;DHT22;4094;49.948;11.574;2022-08-07T04:38:36;17.80;47.60
8103;DHT22;4094;49.948;11.574;2022-08-07T04:41:08;17.80;47.70
8103;DHT22;4094;49.948;11.574;2022-08-07T04:43:47;17.80;47.90
8103;DHT22;4094;49.948;11.574;2022-08-07T04:46:43;17.90;47.90
8103;DHT22;4094;49.948;11.574;2022-08-07T04:49:41;17.90;47.70
8103;DHT22;4094;49.948;11.574;2022-08-07T04:52:31;17.90;47.80
8103;DHT22;4094;49.948;11.574;2022-08-07T04:55:05;17.90;47.50
8103;DHT22;4094;49.948;11.574;2022-08-07T04:58:01;17.90;47.50
8103;DHT22;4094;49.948;11.574;2022-08-07T05:00:56;17.90;47.60
8103;DHT22;4094;49.948;11.574;2022-08-07T05:03:30;17.90;47.70
8103;DHT22;4094;49.948;11.574;2022-08-07T05:06:29;17.90;47.80
8103;DHT22;4094;49.948;11.574;2022-08-07T05:09:20;18.00;47.80
8103;DHT22;4094;49.948;11.574;2022-08-07T05:12:11;18.10;47.70
8103;DHT22;4094;49.948;11.574;2022-08-07T05:15:02;18.10;47.60
8103;DHT22;4094;49.948;11.574;2022-08-07T05:17:57;18.20;47.70
8103;DHT22;4094;49.948;11.574;2022-08-07T05:20:32;18.20;47.70
8103;DHT22;4094;49.948;11.574;2022-08-07T05:23:07;18.20;48.00
8103;DHT22;4094;49.948;11.574;2022-08-07T05:25:45;18.30;48.00
8103;DHT22;4094;49.948;11.574;2022-08-07T05:28:34;18.30;47.60
8103;DHT22;4094;49.948;11.574;2022-08-07T05:31:10;18.40;47.60
8103;DHT22;4094;49.948;11.574;2022-08-07T05:33:44;18.50;47.40
8103;DHT22;4094;49.948;11.574;2022-08-07T05:36:29;18.60;47.20
8103;DHT22;4094;49.948;11.574;2022-08-07T05:39:06;18.60;47.00
8103;DHT22;4094;49.948;11.574;2022-08-07T05:42:00;18.70;47.10
8103;DHT22;4094;49.948;11.574;2022-08-07T05:44:39;18.80;47.20
8103;DHT22;4094;49.948;11.574;2022-08-07T05:47:30;18.80;46.80
8103;DHT22;4094;49.948;11.574;2022-08-07T05:50:20;18.80;46.70
8103;DHT22;4094;49.948;11.574;2022-08-07T05:52:49;18.90;46.40
8103;DHT22;4094;49.948;11.574;2022-08-07T05:55:21;19.00;46.40
8103;DHT22;4094;49.948;11.574;2022-08-07T05:58:10;19.00;46.60
8103;DHT22;4094;49.948;11.574;2022-08-07T06:00:43;19.10;46.50
8103;DHT22;4094;49.948;11.574;2022-08-07T06:03:18;19.10;46.50
8103;DHT22;4094;49.948;11.574;2022-08-07T06:05:49;19.20;46.60
8103;DHT22;4094;49.948;11.574;2022-08-07T06:08:24;19.20;46.70
8103;DHT22;4094;49.948;11.574;2022-08-07T06:11:00;19.30;46.60
8103;DHT22;4094;49.948;11.574;2022-08-07T06:13:31;19.40;46.50
8103;DHT22;4094;49.948;11.574;2022-08-07T06:16:22;19.50;46.40
8103;DHT22;4094;49.948;11.574;2022-08-07T06:18:58;19.50;46.20
8103;DHT22;4094;49.948;11.574;2022-08-07T06:21:28;19.60;46.00
8103;DHT22;4094;49.948;11.574;2022-08-07T06:24:17;19.70;46.00
8103;DHT22;4094;49.948;11.574;2022-08-07T06:27:08;19.70;46.10
8103;DHT22;4094;49.948;11.574;2022-08-07T06:29:51;19.80;45.70
8103;DHT22;4094;49.948;11.574;2022-08-07T06:32:22;19.90;45.20
8103;DHT22;4094;49.948;11.574;2022-08-07T06:34:58;19.90;45.20
8103;DHT22;4094;49.948;11.574;2022-08-07T06:37:27;20.00;45.30
8103;DHT22;4094;49.948;11.574;2022-08-07T06:40:12;20.00;45.20
8103;DHT22;4094;49.948;11.574;2022-08-07T06:42:52;20.10;45.10
8103;DHT22;4094;49.948;11.574;2022-08-07T06:45:36;20.20;45.00
8103;DHT22;4094;49.948;11.574;2022-08-07T06:48:11;20.30;45.10
8103;DHT22;4094;49.948;11.574;2022-08-07T06:50:46;20.30;45.10
8103;DHT22;4094;49.948;11.574;2022-08-07T06:53:19;20.40;45.10
8103;DHT22;4094;49.948;11.574;2022-08-07T06:56:12;20.50;44.90
8103;DHT22;4094;49.948;11.574;2022-08-07T06:58:47;20.60;44.70
8103;DHT22;4094;49.948;11.574;2022-08-07T07:01:41;20.70;44.50
8103;DHT22;4094;49.948;11.574;2022-08-07T07:04:18;20.80;44.20
8103;DHT22;4094;49.948;11.574;2022-08-07T07:07:00;20.90;44.00
8103;DHT22;4094;49.948;11.574;2022-08-07T07:09:50;21.00;44.00
8103;DHT22;4094;49.948;11.574;2022-08-07T07:12:29;21.10;44.20
8103;DHT22;4094;49.948;11.574;2022-08-07T07:15:05;21.20;44.50
8103;DHT22;4094;49.948;11.574;2022-08-07T07:17:55;21.30;43.90
8103;DHT22;4094;49.948;11.574;2022-08-07T07:20:31;21.40;43.40
8103;DHT22;4094;49.948;11.574;2022-08-07T07:23:04;21.50;43.20
8103;DHT22;4094;49.948;11.574;2022-08-07T07:25:58;21.60;43.00
8103;DHT22;4094;49.948;11.574;2022-08-07T07:28:53;21.70;42.70
8103;DHT22;4094;49.948;11.574;2022-08-07T07:31:47;21.80;42.70
8103;DHT22;4094;49.948;11.574;2022-08-07T07:34:21;21.90;43.00
8103;DHT22;4094;49.948;11.574;2022-08-07T07:37:00;22.00;42.60
8103;DHT22;4094;49.948;11.574;2022-08-07T07:39:51;22.20;42.80
8103;DHT22;4094;49.948;11.574;2022-08-07T07:42:24;22.30;42.40
8103;DHT22;4094;49.948;11.574;2022-08-07T07:45:01;22.30;41.60
8103;DHT22;4094;49.948;11.574;2022-08-07T07:47:33;22.40;41.80
8103;DHT22;4094;49.948;11.574;2022-08-07T07:50:21;22.50;42.10
8103;DHT22;4094;49.948;11.574;2022-08-07T07:53:05;22.60;41.80
8103;DHT22;4094;49.948;11.574;2022-08-07T07:55:51;22.60;41.90
8103;DHT22;4094;49.948;11.574;2022-08-07T07:58:34;22.70;42.10
8103;DHT22;4094;49.948;11.574;2022-08-07T08:01:09;22.80;41.70
8103;DHT22;4094;49.948;11.574;2022-08-07T08:04:01;23.00;42.30
8103;DHT22;4094;49.948;11.574;2022-08-07T08:06:38;23.10;41.80
8103;DHT22;4094;49.948;11.574;2022-08-07T08:09:21;23.20;41.30
8103;DHT22;4094;49.948;11.574;2022-08-07T08:11:57;23.30;41.30
8103;DHT22;4094;49.948;11.574;2022-08-07T08:14:35;23.40;41.40
8103;DHT22;4094;49.948;11.574;2022-08-07T08:17:08;23.50;40.90
8103;DHT22;4094;49.948;11.574;2022-08-07T08:20:02;23.60;41.20
8103;DHT22;4094;49.948;11.574;2022-08-07T08:22:51;23.70;40.80
8103;DHT22;4094;49.948;11.574;2022-08-07T08:25:42;23.80;40.70
8103;DHT22;4094;49.948;11.574;2022-08-07T08:28:37;24.00;41.20
8103;DHT22;4094;49.948;11.574;2022-08-07T08:31:25;24.10;40.00
8103;DHT22;4094;49.948;11.574;2022-08-07T08:34:17;24.20;39.30
8103;DHT22;4094;49.948;11.574;2022-08-07T08:36:57;24.30;39.20
8103;DHT22;4094;49.948;11.574;2022-08-07T08:39:29;24.40;39.30
8103;DHT22;4094;49.948;11.574;2022-08-07T08:42:22;24.40;39.20
8103;DHT22;4094;49.948;11.574;2022-08-07T08:44:59;24.60;39.10
8103;DHT22;4094;49.948;11.574;2022-08-07T08:47:38;24.60;37.90
8103;DHT22;4094;49.948;11.574;2022-08-07T08:50:21;24.60;37.50
8103;DHT22;4094;49.948;11.574;2022-08-07T08:53:14;24.70;38.40
8103;DHT22;4094;49.948;11.574;2022-08-07T08:55:49;24.80;37.90
8103;DHT22;4094;49.948;11.574;2022-08-07T08:58:33;24.80;37.80
8103;DHT22;4094;49.948;11.574;2022-08-07T09:01:10;24.90;37.00
8103;DHT22;4094;49.948;11.574;2022-08-07T09:03:57;25.00;36.90
8103;DHT22;4094;49.948;11.574;2022-08-07T09:06:43;25.00;36.90
8103;DHT22;4094;49.948;11.574;2022-08-07T09:09:34;25.10;37.20
8103;DHT22;4094;49.948;11.574;2022-08-07T09:12:15;25.20;37.20
8103;DHT22;4094;49.948;11.574;2022-08-07T09:15:09;25.20;37.20
8103;DHT22;4094;49.948;11.574;2022-08-07T09:18:21;25.30;37.00
8103;DHT22;4094;49.948;11.574;2022-08-07T09:21:00;25.40;37.00
8103;DHT22;4094;49.948;11.574;2022-08-07T09:23:45;25.40;36.20
8103;DHT22;4094;49.948;11.574;2022-08-07T09:26:45;25.50;36.40
8103;DHT22;4094;49.948;11.574;2022-08-07T09:29:23;25.60;35.90
8103;DHT22;4094;49.948;11.574;2022-08-07T09:32:20;25.60;36.00
8103;DHT22;4094;49.948;11.574;2022-08-07T09:34:59;25.70;35.40
8103;DHT22;4094;49.948;11.574;2022-08-07T09:37:57;25.70;35.20
8103;DHT22;4094;49.948;11.574;2022-08-07T09:40:31;25.80;35.80
8103;DHT22;4094;49.948;11.574;2022-08-07T09:43:15;25.80;35.90
8103;DHT22;4094;49.948;11.574;2022-08-07T09:46:25;25.80;34.70
8103;DHT22;4094;49.948;11.574;2022-08-07T09:49:24;25.90;35.20
8103;DHT22;4094;49.948;11.574;2022-08-07T09:52:22;25.90;35.30
8103;DHT22;4094;49.948;11.574;2022-08-07T09:55:07;25.90;34.90
8103;DHT22;4094;49.948;11.574;2022-08-07T09:58:06;25.90;34.90
8103;DHT22;4094;49.948;11.574;2022-08-07T10:00:56;25.90;34.20
8103;DHT22;4094;49.948;11.574;2022-08-07T10:04:08;25.90;34.30
8103;DHT22;4094;49.948;11.574;2022-08-07T10:06:52;26.00;34.60
8103;DHT22;4094;49.948;11.574;2022-08-07T10:09:38;26.00;34.50
8103;DHT22;4094;49.948;11.574;2022-08-07T10:12:44;26.00;34.20
8103;DHT22;4094;49.948;11.574;2022-08-07T10:15:35;26.00;34.60
8103;DHT22;4094;49.948;11.574;2022-08-07T10:18:32;26.00;34.00
8103;DHT22;4094;49.948;11.574;2022-08-07T10:21:14;26.00;33.20
8103;DHT22;4094;49.948;11.574;2022-08-07T10:24:30;26.00;33.00
8103;DHT22;4094;49.948;11.574;2022-08-07T10:27:19;26.00;33.70
8103;DHT22;4094;49.948;11.574;2022-08-07T10:30:15;26.10;34.00
8103;DHT22;4094;49.948;11.574;2022-08-07T10:35:54;26.20;34.30
8103;DHT22;4094;49.948;11.574;2022-08-07T10:38:47;26.30;33.90
8103;DHT22;4094;49.948;11.574;2022-08-07T10:41:24;26.30;34.10
8103;DHT22;4094;49.948;11.574;2022-08-07T10:44:18;26.40;34.40
8103;DHT22;4094;49.948;11.574;2022-08-07T10:47:17;26.40;33.10
8103;DHT22;4094;49.948;11.574;2022-08-07T10:50:11;26.40;34.00
8103;DHT22;4094;49.948;11.574;2022-08-07T10:52:50;26.50;34.20
8103;DHT22;4094;49.948;11.574;2022-08-07T10:55:26;26.50;34.30
8103;DHT22;4094;49.948;11.574;2022-08-07T10:58:14;26.50;34.50
8103;DHT22;4094;49.948;11.574;2022-08-07T11:00:56;26.60;34.00
8103;DHT22;4094;49.948;11.574;2022-08-07T11:03:36;26.60;34.00
8103;DHT22;4094;49.948;11.574;2022-08-07T11:06:29;26.60;33.30
8103;DHT22;4094;49.948;11.574;2022-08-07T11:09:06;26.70;33.90
8103;DHT22;4094;49.948;11.574;2022-08-07T11:11:43;26.70;32.90
8103;DHT22;4094;49.948;11.574;2022-08-07T11:14:22;26.70;33.30
8103;DHT22;4094;49.948;11.574;2022-08-07T11:17:16;26.80;33.40
8103;DHT22;4094;49.948;11.574;2022-08-07T11:20:13;26.80;33.50
8103;DHT22;4094;49.948;11.574;2022-08-07T11:22:52;26.90;33.30
8103;DHT22;4094;49.948;11.574;2022-08-07T11:25:31;26.90;32.60
8103;DHT22;4094;49.948;11.574;2022-08-07T11:28:13;27.00;33.00
8103;DHT22;4094;49.948;11.574;2022-08-07T11:30:52;27.00;32.10
8103;DHT22;4094;49.948;11.574;2022-08-07T11:33:27;27.00;32.70
8103;DHT22;4094;49.948;11.574;2022-08-07T11:36:33;27.00;33.00
8103;DHT22;4094;49.948;11.574;2022-08-07T11:39:20;27.10;32.80
8103;DHT22;4094;49.948;11.574;2022-08-07T11:42:14;27.10;32.10
8103;DHT22;4094;49.948;11.574;2022-08-07T11:44:52;27.20;32.60
8103;DHT22;4094;49.948;11.574;2022-08-07T11:47:45;27.20;32.40
8103;DHT22;4094;49.948;11.574;2022-08-07T11:50:34;27.20;32.50
8103;DHT22;4094;49.948;11.574;2022-08-07T11:53:37;27.20;32.00
8103;DHT22;4094;49.948;11.574;2022-08-07T11:56:36;27.20;32.70
8103;DHT22;4094;49.948;11.574;2022-08-07T11:59:36;27.30;33.40
8103;DHT22;4094;49.948;11.574;2022-08-07T12:02:40;27.30;31.80
8103;DHT22;4094;49.948;11.574;2022-08-07T12:05:27;27.40;31.40
8103;DHT22;4094;49.948;11.574;2022-08-07T12:08:19;27.30;31.60
8103;DHT22;4094;49.948;11.574;2022-08-07T12:11:07;27.40;31.90
8103;DHT22;4094;49.948;11.574;2022-08-07T12:13:52;27.40;32.20
8103;DHT22;4094;49.948;11.574;2022-08-07T12:16:28;27.50;32.20
8103;DHT22;4094;49.948;11.574;2022-08-07T12:19:04;27.50;32.20
8103;DHT22;4094;49.948;11.574;2022-08-07T12:21:58;27.60;32.20
8103;DHT22;4094;49.948;11.574;2022-08-07T12:24:55;27.70;32.40
8103;DHT22;4094;49.948;11.574;2022-08-07T12:28:05;27.80;31.90
8103;DHT22;4094;49.948;11.574;2022-08-07T12:30:40;27.90;31.50
8103;DHT22;4094;49.948;11.574;2022-08-07T12:33:19;28.00;31.00
8103;DHT22;4094;49.948;11.574;2022-08-07T12:35:55;28.00;31.70
8103;DHT22;4094;49.948;11.574;2022-08-07T12:38:29;28.10;30.90
8103;DHT22;4094;49.948;11.574;2022-08-07T12:41:10;28.20;31.20
8103;DHT22;4094;49.948;11.574;2022-08-07T12:43:41;28.30;31.50
8103;DHT22;4094;49.948;11.574;2022-08-07T12:46:45;28.30;30.50
8103;DHT22;4094;49.948;11.574;2022-08-07T12:49:28;28.40;31.30
8103;DHT22;4094;49.948;11.574;2022-08-07T12:52:28;28.50;32.40
8103;DHT22;4094;49.948;11.574;2022-08-07T12:55:08;28.60;30.90
8103;DHT22;4094;49.948;11.574;2022-08-07T12:57:45;28.70;31.20
8103;DHT22;4094;49.948;11.574;2022-08-07T13:00:39;28.80;31.60
8103;DHT22;4094;49.948;11.574;2022-08-07T13:03:30;29.00;31.40
8103;DHT22;4094;49.948;11.574;2022-08-07T13:06:37;29.10;31.50
8103;DHT22;4094;49.948;11.574;2022-08-07T13:09:45;29.20;31.30
8103;DHT22;4094;49.948;11.574;2022-08-07T13:12:49;29.40;31.40
8103;DHT22;4094;49.948;11.574;2022-08-07T13:15:27;29.40;30.60
8103;DHT22;4094;49.948;11.574;2022-08-07T13:18:17;29.50;31.70
8103;DHT22;4094;49.948;11.574;2022-08-07T13:21:05;29.60;30.90
8103;DHT22;4094;49.948;11.574;2022-08-07T13:23:45;29.70;30.40
8103;DHT22;4094;49.948;11.574;2022-08-07T13:26:40;29.70;30.70
8103;DHT22;4094;49.948;11.574;2022-08-07T13:29:18;29.80;30.50
8103;DHT22;4094;49.948;11.574;2022-08-07T13:31:51;29.90;30.80
8103;DHT22;4094;49.948;11.574;2022-08-07T13:34:34;29.90;30.60
8103;DHT22;4094;49.948;11.574;2022-08-07T13:37:11;30.00;30.40
8103;DHT22;4094;49.948;11.574;2022-08-07T13:39:55;30.10;30.80
8103;DHT22;4094;49.948;11.574;2022-08-07T13:42:48;30.10;29.50
8103;DHT22;4094;49.948;11.574;2022-08-07T13:45:19;30.10;29.40
8103;DHT22;4094;49.948;11.574;2022-08-07T13:48:10;30.10;29.50
8103;DHT22;4094;49.948;11.574;2022-08-07T13:51:00;30.20;29.80
8103;DHT22;4094;49.948;11.574;2022-08-07T13:53:52;30.20;30.00
8103;DHT22;4094;49.948;11.574;2022-08-07T13:56:30;30.20;29.80
8103;DHT22;4094;49.948;11.574;2022-08-07T13:59:13;30.30;29.60
8103;DHT22;4094;49.948;11.574;2022-08-07T14:01:48;30.30;29.70
8103;DHT22;4094;49.948;11.574;2022-08-07T14:04:35;30.30;29.40
8103;DHT22;4094;49.948;11.574;2022-08-07T14:07:18;30.40;29.60
8103;DHT22;4094;49.948;11.574;2022-08-07T14:09:53;30.40;29.40
8103;DHT22;4094;49.948;11.574;2022-08-07T14:12:48;30.40;29.40
8103;DHT22;4094;49.948;11.574;2022-08-07T14:15:31;30.40;29.10
8103;DHT22;4094;49.948;11.574;2022-08-07T14:18:05;30.40;29.20
8103;DHT22;4094;49.948;11.574;2022-08-07T14:21:01;30.40;28.80
8103;DHT22;4094;49.948;11.574;2022-08-07T14:23:42;30.40;28.80
8103;DHT22;4094;49.948;11.574;2022-08-07T14:26:34;30.40;29.20
8103;DHT22;4094;49.948;11.574;2022-08-07T14:29:10;30.40;29.20
8103;DHT22;4094;49.948;11.574;2022-08-07T14:32:03;30.50;28.90
8103;DHT22;4094;49.948;11.574;2022-08-07T14:34:41;30.40;28.20
8103;DHT22;4094;49.948;11.574;2022-08-07T14:37:15;30.40;28.40
8103;DHT22;4094;49.948;11.574;2022-08-07T14:39:47;30.30;28.30
8103;DHT22;4094;49.948;11.574;2022-08-07T14:42:37;30.30;28.00
8103;DHT22;4094;49.948;11.574;2022-08-07T14:45:30;30.30;28.50
8103;DHT22;4094;49.948;11.574;2022-08-07T14:48:19;30.20;28.20
8103;DHT22;4094;49.948;11.574;2022-08-07T14:50:55;30.10;28.80
8103;DHT22;4094;49.948;11.574;2022-08-07T14:53:30;30.10;28.40
8103;DHT22;4094;49.948;11.574;2022-08-07T14:56:21;30.00;28.40
8103;DHT22;4094;49.948;11.574;2022-08-07T14:59:00;29.90;28.20
8103;DHT22;4094;49.948;11.574;2022-08-07T15:01:42;29.90;28.40
8103;DHT22;4094;49.948;11.574;2022-08-07T15:04:19;29.90;28.50
8103;DHT22;4094;49.948;11.574;2022-08-07T15:06:52;29.80;28.30
8103;DHT22;4094;49.948;11.574;2022-08-07T15:09:22;29.70;28.30
8103;DHT22;4094;49.948;11.574;2022-08-07T15:12:15;29.60;28.20
8103;DHT22;4094;49.948;11.574;2022-08-07T15:15:03;29.50;28.30
8103;DHT22;4094;49.948;11.574;2022-08-07T15:17:40;29.50;28.00
8103;DHT22;4094;49.948;11.574;2022-08-07T15:20:32;29.40;28.00
8103;DHT22;4094;49.948;11.574;2022-08-07T15:23:26;29.30;28.50
8103;DHT22;4094;49.948;11.574;2022-08-07T15:26:20;29.20;28.40
8103;DHT22;4094;49.948;11.574;2022-08-07T15:28:56;29.20;28.50
8103;DHT22;4094;49.948;11.574;2022-08-07T15:31:48;29.10;28.70
8103;DHT22;4094;49.948;11.574;2022-08-07T15:34:42;29.10;28.40
8103;DHT22;4094;49.948;11.574;2022-08-07T15:37:33;29.00;28.30
8103;DHT22;4094;49.948;11.574;2022-08-07T15:40:25;29.00;28.30
8103;DHT22;4094;49.948;11.574;2022-08-07T15:43:17;28.90;28.00
8103;DHT22;4094;49.948;11.574;2022-08-07T15:46:18;28.90;28.40
8103;DHT22;4094;49.948;11.574;2022-08-07T15:49:06;28.80;28.60
8103;DHT22;4094;49.948;11.574;2022-08-07T15:51:44;28.70;28.30
8103;DHT22;4094;49.948;11.574;2022-08-07T15:54:32;28.70;28.20
8103;DHT22;4094;49.948;11.574;2022-08-07T15:57:09;28.60;28.00
8103;DHT22;4094;49.948;11.574;2022-08-07T15:59:59;28.60;28.30
8103;DHT22;4094;49.948;11.574;2022-08-07T16:02:37;28.60;28.70
8103;DHT22;4094;49.948;11.574;2022-08-07T16:05:10;28.50;28.30
8103;DHT22;4094;49.948;11.574;2022-08-07T16:07:49;28.50;28.40
8103;DHT22;4094;49.948;11.574;2022-08-07T16:10:43;28.50;28.90
8103;DHT22;4094;49.948;11.574;2022-08-07T16:13:49;28.50;28.60
8103;DHT22;4094;49.948;11.574;2022-08-07T16:16:33;28.50;28.60
8103;DHT22;4094;49.948;11.574;2022-08-07T16:22:46;28.50;28.60
8103;DHT22;4094;49.948;11.574;2022-08-07T16:28:56;28.50;28.50
8103;DHT22;4094;49.948;11.574;2022-08-07T16:31:54;28.50;28.40
8103;DHT22;4094;49.948;11.574;2022-08-07T16:34:41;28.50;28.10
8103;DHT22;4094;49.948;11.574;2022-08-07T16:40:43;28.40;28.20
8103;DHT22;4094;49.948;11.574;2022-08-07T16:43:51;28.40;28.40
8103;DHT22;4094;49.948;11.574;2022-08-07T16:46:45;28.40;28.30
8103;DHT22;4094;49.948;11.574;2022-08-07T16:53:05;28.40;28.20
8103;DHT22;4094;49.948;11.574;2022-08-07T16:56:03;28.40;28.10
8103;DHT22;4094;49.948;11.574;2022-08-07T16:58:54;28.40;28.40
8103;DHT22;4094;49.948;11.574;2022-08-07T17:01:50;28.40;28.20
8103;DHT22;4094;49.948;11.574;2022-08-07T17:04:35;28.40;28.20
8103;DHT22;4094;49.948;11.574;2022-08-07T17:07:31;28.30;28.30
8103;DHT22;4094;49.948;11.574;2022-08-07T17:10:24;28.30;28.50
8103;DHT22;4094;49.948;11.574;2022-08-07T17:13:23;28.30;29.10
8103;DHT22;4094;49.948;11.574;2022-08-07T17:16:20;28.30;28.60
8103;DHT22;4094;49.948;11.574;2022-08-07T17:19:07;28.30;28.70
8103;DHT22;4094;49.948;11.574;2022-08-07T17:21:44;28.30;28.50
8103;DHT22;4094;49.948;11.574;2022-08-07T17:24:29;28.30;28.00
8103;DHT22;4094;49.948;11.574;2022-08-07T17:27:04;28.20;27.90
8103;DHT22;4094;49.948;11.574;2022-08-07T17:29:55;28.20;28.20
8103;DHT22;4094;49.948;11.574;2022-08-07T17:32:51;28.20;28.20
8103;DHT22;4094;49.948;11.574;2022-08-07T17:35:32;28.20;29.20
8103;DHT22;4094;49.948;11.574;2022-08-07T17:38:26;28.20;28.60
8103;DHT22;4094;49.948;11.574;2022-08-07T17:41:07;28.20;28.40
8103;DHT22;4094;49.948;11.574;2022-08-07T17:43:59;28.20;28.20
8103;DHT22;4094;49.948;11.574;2022-08-07T17:46:42;28.20;28.40
8103;DHT22;4094;49.948;11.574;2022-08-07T17:49:22;28.20;28.30